Ana Sayfa
METAR-TAF:

METAR-TAF

Havaalanları :

Cape Newenham, Alaska, Amerika Birleşik Devletleri

Enlem: 58-39N, Boylam: 162-04W, yükseklik: 165 m

Güncel hava durumu gözlemi

Rapor saat 05:08 UTC de 42 dakika önce yapıldı.
Rüzgar doğu/güneydoğudan 13 kt ve 22 kt'a kadar ani rüzgarlar, doğu/kuzeydoğu ve güney/güneydoğu arasında değişken
Sıcaklık -2°C
Nem 86%
Basınç 1017 hPa
Görüş mesafesi: 2.4 km
500 ft yükseklikte çok bulutlu
(Hafif) Donan, yağmur, Pus

METAR: PAEH 010508Z AUTO 12013G22KT 070V150 1 1/2SM -FZRA BR OVC005 M02/M04 A3002 RMK AO2 SLP178

Saat: 21:50 (05:50 UTC)


TAF: eksik

4.000'den fazla havaalanı için hava durumu gözlemleri ve tahminleri (METAR ve TAF raporları).

Kullanılabilir istasyonlar harita üzerinde sarı ve kırmızı noktalarla gösterilir.

İstasyonun adını görmek için fareyi noktanın üzerinde gezdirin.

Sonrasında hava gözlem ve tahminlerini görmek için tıklayın.

Haritayı değiştirmek için: yaklaştırmak için siyah artı işaretli yeşil düğmeye ve uzaklaştırmak için de eksi işaretli düğmeye hızla tıklayın; bitişik haritalar için yeşil okları kullanın.


METAR-TAF: